Archival Weather

Norman Y Mineta San Jose Intl

San Jose, California (KSJC)

Report from: Saturday, February 24, 2024 6:53 AM PST
Current time: Friday, June 14, 2024 6:04 AM PDT

Current weather – Weather history – Daily summaries
Weather forecast

Temperature8.9°C (48.0°F)
Dew point5.0°C (41.0°F)
Winds Calm
Visibility10 mi. (16.1 km)
Clouds Scattered clouds 6,000 ft. (1,829 m)
Altimeter30.05 in.Hg (1018 mB)
Relative humidity77 %
Density altitude-744 ft. (-227 m)
Sea-level pressure101.7 kPa (1017 mB, 30.04 in.Hg)
Remarks Automated weather observing station with precipitation discriminator
Pressure rising
Flight conditions Visual Meteorological Conditions
Raw dataKSJC 241453Z 00000KT 10SM SCT060 09/05 A3005 RMK AO2 SLP174 T00890050 52001
An error has occurred. This application may no longer respond until reloaded. Reload 🗙